Time;durP1;ratioP1;P1;durP2;ratioP2;P2;SDS_P1;SDS_P2;PMS_P1;PMS_P2;Temp;Humidity;BMP_temperature;BMP_pressure;BME280_temperature;BME280_humidity;BME280_pressure;Samples;Min_cycle;Max_cycle;Signal;HPM_P1;HPM_P2
2021/12/11 00:00:17;;;;;;;58.53;31.48;;;;;;;1.32;100.00;100523.00;4878942;29;20190;-83
2021/12/11 00:02:45;;;;;;;57.40;31.92;;;;;;;1.35;100.00;100524.75;4863646;29;20194;-82
2021/12/11 00:05:16;;;;;;;62.17;32.05;;;;;;;1.28;100.00;100529.19;4847963;29;20174;-82
2021/12/11 00:07:42;;;;;;;57.38;32.25;;;;;;;1.31;100.00;100523.00;4864505;29;20202;-82
2021/12/11 00:10:29;;;;;;;56.25;30.77;;;;;;;1.31;100.00;100536.19;4865223;29;20198;-82
2021/12/11 00:13:01;;;;;;;49.97;29.65;;;;;;;1.35;100.00;100532.66;4865940;29;20202;-82
2021/12/11 00:15:31;;;;;;;57.38;30.45;;;;;;;1.35;100.00;100532.66;4851438;29;20186;-82
2021/12/11 00:18:00;;;;;;;58.20;29.65;;;;;;;1.39;100.00;100539.69;4847978;29;20173;-82
2021/12/11 00:20:31;;;;;;;59.50;30.98;;;;;;;1.35;100.00;100548.50;4847960;29;20174;-82
2021/12/11 00:22:58;;;;;;;56.30;28.92;;;;;;;1.38;100.00;100548.50;4863579;29;20206;-82
2021/12/11 00:25:24;;;;;;;61.53;30.88;;;;;;;1.35;100.00;100546.72;4832690;29;20182;-83
2021/12/11 00:27:52;;;;;;;56.60;28.85;;;;;;;1.41;100.00;100559.03;4865786;29;20660;-84
2021/12/11 00:30:23;;;;;;;58.65;32.00;;;;;;;1.37;100.00;100563.44;4850128;29;20186;-83
2021/12/11 00:32:57;;;;;;;56.20;30.23;;;;;;;1.42;100.00;100563.41;4880313;29;20277;-83
2021/12/11 00:35:22;;;;;;;58.25;28.52;;;;;;;1.41;100.00;100569.59;4866717;29;20158;-83
2021/12/11 00:37:48;;;;;;;64.32;32.55;;;;;;;1.43;100.00;100565.19;4849670;29;20182;-83
2021/12/11 00:40:19;;;;;;;59.70;30.95;;;;;;;1.42;100.00;100573.97;4833653;29;20200;-83
2021/12/11 00:42:50;;;;;;;61.55;31.30;;;;;;;1.43;100.00;100581.00;4848177;29;20230;-84
2021/12/11 00:45:21;;;;;;;56.65;30.00;;;;;;;1.48;100.00;100588.91;4857265;23;20190;-83
2021/12/11 00:47:51;;;;;;;61.30;31.48;;;;;;;1.45;100.00;100595.09;4866063;29;20229;-84
2021/12/11 00:50:19;;;;;;;58.65;32.13;;;;;;;1.44;100.00;100603.88;4859762;29;20266;-84
2021/12/11 00:52:52;;;;;;;60.60;31.00;;;;;;;1.45;100.00;100610.94;4868922;29;20169;-84
2021/12/11 00:55:29;;;;;;;64.78;31.75;;;;;;;1.47;100.00;100611.78;4884601;29;20170;-83
2021/12/11 00:58:08;;;;;;;58.10;31.20;;;;;;;1.42;100.00;100611.81;4868258;29;20192;-85
2021/12/11 01:00:40;;;;;;;54.55;28.40;;;;;;;1.47;100.00;100617.06;4850003;29;20225;-83
2021/12/11 01:03:06;;;;;;;56.42;28.85;;;;;;;1.49;100.00;100623.22;4845506;29;20194;-84
2021/12/11 01:05:36;;;;;;;60.95;29.95;;;;;;;1.51;100.00;100623.19;4829172;29;20267;-82
2021/12/11 01:08:12;;;;;;;56.58;30.27;;;;;;;1.54;100.00;100637.28;4828880;29;20202;-83
2021/12/11 01:10:39;;;;;;;59.30;29.10;;;;;;;1.52;100.00;100638.19;4845281;29;20202;-83
2021/12/11 01:13:05;;;;;;;57.17;29.23;;;;;;;1.57;100.00;100641.66;4829869;29;20175;-83
2021/12/11 01:15:44;;;;;;;59.63;31.08;;;;;;;1.47;100.00;100639.97;4833421;29;20182;-83
2021/12/11 01:20:54;;;;;;;57.03;27.75;;;;;;;1.56;100.00;100639.91;4849062;29;20687;-83
2021/12/11 01:23:55;;;;;;;58.05;28.75;;;;;;;1.57;100.00;100637.25;4831175;29;20284;-83
2021/12/11 01:26:21;;;;;;;55.25;29.27;;;;;;;1.49;100.00;100640.81;4830621;29;20810;-82
2021/12/11 01:28:48;;;;;;;53.10;27.67;;;;;;;1.51;100.00;100649.59;4846573;29;20297;-83
2021/12/11 01:31:15;;;;;;;59.08;29.05;;;;;;;1.50;100.00;100646.09;4846658;29;20203;-84
2021/12/11 01:33:42;;;;;;;58.15;29.30;;;;;;;1.46;100.00;100659.31;4846553;29;20286;-83
2021/12/11 01:36:09;;;;;;;57.58;29.17;;;;;;;1.36;100.00;100656.72;4829646;29;20170;-83
2021/12/11 01:38:35;;;;;;;54.63;27.63;;;;;;;1.39;100.00;100654.06;4844826;29;20202;-84
2021/12/11 01:41:05;;;;;;;59.28;29.65;;;;;;;1.40;100.00;100666.38;4813642;29;20214;-84
2021/12/11 01:43:35;;;;;;;58.80;28.65;;;;;;;1.38;100.00;100676.06;4829324;29;20174;-83
2021/12/11 01:46:01;;;;;;;56.05;29.08;;;;;;;1.38;100.00;100678.72;4845466;29;20202;-83
2021/12/11 01:48:35;;;;;;;57.42;30.15;;;;;;;1.42;100.00;100679.56;4844482;29;20211;-83
2021/12/11 01:51:07;;;;;;;55.00;28.65;;;;;;;1.46;100.00;100675.16;4829335;29;20274;-83
2021/12/11 01:53:47;;;;;;;56.72;28.98;;;;;;;1.39;100.00;100674.31;4828598;29;20179;-83
2021/12/11 01:56:17;;;;;;;50.58;27.67;;;;;;;1.44;100.00;100685.72;4844567;29;20669;-83
2021/12/11 01:58:56;;;;;;;55.30;28.90;;;;;;;1.47;100.00;100692.78;4844447;29;20182;-83
2021/12/11 02:01:31;;;;;;;56.03;28.80;;;;;;;1.48;100.00;100690.09;4844966;29;20217;-83
2021/12/11 02:03:59;;;;;;;58.70;28.42;;;;;;;1.39;100.00;100693.66;4844735;29;20524;-83
2021/12/11 02:06:34;;;;;;;49.13;26.83;;;;;;;1.48;100.00;100699.78;4844295;29;20174;-83
2021/12/11 02:09:19;;;;;;;49.78;27.17;;;;;;;1.46;100.00;100694.50;4839604;29;20239;-83
2021/12/11 02:11:49;;;;;;;58.83;27.55;;;;;;;1.36;100.00;100701.59;4828373;29;20237;-83
2021/12/11 02:14:21;;;;;;;51.78;26.80;;;;;;;1.42;100.00;100708.59;4845204;29;20248;-82
2021/12/11 02:16:49;;;;;;;55.70;29.13;;;;;;;1.35;100.00;100709.50;4829544;29;20179;-82
2021/12/11 02:19:20;;;;;;;54.10;28.08;;;;;;;1.31;100.00;100710.38;4847330;29;20682;-81
2021/12/11 02:22:01;;;;;;;55.85;29.25;;;;;;;1.22;100.00;100709.53;4845395;29;20205;-82
2021/12/11 02:24:36;;;;;;;54.67;28.95;;;;;;;1.20;100.00;100716.59;4863717;29;20616;-81
2021/12/11 02:27:07;;;;;;;56.38;29.75;;;;;;;1.20;100.00;100720.97;4888084;23;20225;-83
2021/12/11 02:29:41;;;;;;;55.08;28.13;;;;;;;1.24;100.00;100722.72;4853391;29;20300;-84
2021/12/11 02:32:27;;;;;;;55.42;28.83;;;;;;;1.17;100.00;100723.63;4877692;29;20296;-82
2021/12/11 02:35:10;;;;;;;49.70;26.83;;;;;;;1.20;100.00;100724.50;4881983;29;20208;-83
2021/12/11 02:37:44;;;;;;;53.75;28.35;;;;;;;1.17;100.00;100727.13;4850866;29;20252;-82
2021/12/11 02:40:30;;;;;;;59.95;31.10;;;;;;;1.17;100.00;100727.13;4864447;29;20181;-83
2021/12/11 02:43:06;;;;;;;52.40;28.38;;;;;;;1.16;100.00;100721.84;4879596;29;20189;-82
2021/12/11 02:45:38;;;;;;;61.63;30.80;;;;;;;1.14;100.00;100729.78;4863868;29;20348;-82
2021/12/11 02:48:08;;;;;;;55.92;29.40;;;;;;;1.10;100.00;100730.66;4863661;29;20213;-83
2021/12/11 02:50:50;;;;;;;53.83;28.45;;;;;;;1.08;100.00;100727.16;4879600;29;20705;-82
2021/12/11 02:53:27;;;;;;;59.13;29.70;;;;;;;1.10;100.00;100725.38;4879887;29;20249;-83
2021/12/11 02:55:59;;;;;;;53.15;28.38;;;;;;;1.21;100.00;100733.28;4863711;29;20330;-82
2021/12/11 02:58:28;;;;;;;56.75;28.25;;;;;;;1.15;100.00;100738.56;4863565;29;20192;-82
2021/12/11 03:01:12;;;;;;;56.72;28.50;;;;;;;1.15;100.00;100741.22;4829916;29;20202;-82
2021/12/11 03:03:44;;;;;;;60.90;29.00;;;;;;;1.12;100.00;100736.81;4844883;29;20670;-82
2021/12/11 03:06:19;;;;;;;52.83;25.85;;;;;;;1.20;100.00;100740.34;4845067;29;20647;-82
2021/12/11 03:08:45;;;;;;;54.25;29.55;;;;;;;1.15;100.00;100738.56;4844100;29;20715;-82
2021/12/11 03:11:15;;;;;;;57.20;28.92;;;;;;;1.21;100.00;100746.47;4864377;29;20201;-81
2021/12/11 03:13:50;;;;;;;52.70;27.92;;;;;;;1.23;100.00;100748.22;4862756;29;20182;-81
2021/12/11 03:16:17;;;;;;;51.03;26.15;;;;;;;1.21;100.00;100744.72;4845782;29;20193;-81
2021/12/11 03:18:42;;;;;;;53.35;26.90;;;;;;;1.28;100.00;100752.63;4860957;29;20243;-81
2021/12/11 03:21:08;;;;;;;50.83;25.95;;;;;;;1.26;100.00;100757.03;4846109;29;20213;-81
2021/12/11 03:23:33;;;;;;;58.35;28.40;;;;;;;1.20;100.00;100760.53;4846171;29;20558;-81
2021/12/11 03:25:59;;;;;;;58.10;28.95;;;;;;;1.26;100.00;100765.81;4845982;29;20245;-83
2021/12/11 03:28:24;;;;;;;47.70;26.02;;;;;;;1.33;100.00;100758.78;4845403;29;20213;-82
2021/12/11 03:30:59;;;;;;;52.10;28.23;;;;;;;1.34;100.00;100763.19;4845903;29;20219;-81
2021/12/11 03:33:28;;;;;;;52.75;27.98;;;;;;;1.34;100.00;100766.69;4845566;29;20213;-81
2021/12/11 03:35:55;;;;;;;54.53;27.55;;;;;;;1.33;100.00;100777.25;4877067;29;20177;-81
2021/12/11 03:38:22;;;;;;;52.03;26.98;;;;;;;1.30;100.00;100790.47;4861968;29;20170;-81
2021/12/11 03:40:48;;;;;;;53.53;27.98;;;;;;;1.32;100.00;100767.59;4862810;29;20237;-81
2021/12/11 03:43:17;;;;;;;58.97;29.75;;;;;;;1.32;100.00;100778.16;4845690;29;20235;-81
2021/12/11 03:45:45;;;;;;;55.30;27.60;;;;;;;1.34;100.00;100793.09;5032433;24;20601;-81
2021/12/11 03:48:20;;;;;;;47.33;27.80;;;;;;;1.32;100.00;100788.69;4888475;29;20666;-81
2021/12/11 03:50:46;;;;;;;55.15;27.73;;;;;;;1.32;100.00;100805.41;4886317;29;20199;-81
2021/12/11 03:53:13;;;;;;;58.83;28.58;;;;;;;1.31;100.00;100803.66;4864173;29;20188;-81
2021/12/11 03:55:47;;;;;;;51.80;27.35;;;;;;;1.30;100.00;100807.16;4939624;23;21328;-82
2021/12/11 03:58:13;;;;;;;53.72;26.42;;;;;;;1.36;100.00;100812.44;4858589;29;20205;-81
2021/12/11 04:00:44;;;;;;;47.33;25.67;;;;;;;1.35;100.00;100815.09;4894059;29;20202;-83
2021/12/11 04:03:11;;;;;;;48.92;26.33;;;;;;;1.33;100.00;100817.72;4877508;29;20290;-83
2021/12/11 04:05:43;;;;;;;47.60;27.50;;;;;;;1.37;100.00;100815.97;4863268;29;20692;-81
2021/12/11 04:08:12;;;;;;;51.70;27.30;;;;;;;1.35;100.00;100815.09;4857921;29;20765;-82
2021/12/11 04:10:38;;;;;;;51.58;26.98;;;;;;;1.31;100.00;100821.22;4858965;29;20360;-81
2021/12/11 04:13:07;;;;;;;46.17;27.23;;;;;;;1.33;100.00;100823.00;4861008;29;20206;-82
2021/12/11 04:15:33;;;;;;;49.83;26.33;;;;;;;1.30;100.00;100832.69;4864938;29;20170;-84
2021/12/11 04:17:59;;;;;;;55.97;26.27;;;;;;;1.34;100.00;100826.53;4833240;29;20190;-83
2021/12/11 04:20:27;;;;;;;52.13;27.98;;;;;;;1.29;100.00;100828.28;4843789;29;20230;-83
2021/12/11 04:22:54;;;;;;;55.45;28.00;;;;;;;1.30;100.00;100836.19;4862217;29;20198;-82
2021/12/11 04:25:24;;;;;;;48.88;26.88;;;;;;;1.32;100.00;100842.38;4861130;29;20178;-83
2021/12/11 04:27:50;;;;;;;54.60;28.60;;;;;;;1.23;100.00;100845.88;4860544;29;20702;-82
2021/12/11 04:30:18;;;;;;;52.33;27.02;;;;;;;1.27;100.00;100836.22;4863866;29;20185;-83
2021/12/11 04:32:44;;;;;;;44.42;26.05;;;;;;;1.30;100.00;100854.69;4865459;29;20166;-83
2021/12/11 04:35:12;;;;;;;47.10;26.45;;;;;;;1.30;100.00;100865.22;4864322;29;20235;-82
2021/12/11 04:37:39;;;;;;;54.55;27.77;;;;;;;1.26;100.00;100863.47;4863908;29;20166;-83
2021/12/11 04:40:14;;;;;;;52.03;27.50;;;;;;;1.26;100.00;100867.88;4864926;29;20189;-83
2021/12/11 04:45:31;;;;;;;54.65;27.42;;;;;;;1.18;100.00;100860.84;4864767;29;20523;-83
2021/12/11 04:48:05;;;;;;;47.60;25.33;;;;;;;1.24;100.00;100863.47;4866595;29;20204;-83
2021/12/11 04:50:46;;;;;;;52.15;26.50;;;;;;;1.26;100.00;100852.03;4865310;29;20230;-83
2021/12/11 04:53:58;;;;;;;48.17;25.85;;;;;;;1.14;100.00;100856.44;4866617;29;20250;-83
2021/12/11 05:04:29;;;;;;;52.80;26.55;;;;;;;1.00;100.00;100861.69;4844239;29;20222;-83
2021/12/11 05:07:04;;;;;;;48.50;25.40;;;;;;;0.95;100.00;100881.03;4844583;29;20235;-83
2021/12/11 05:09:41;;;;;;;44.13;24.83;;;;;;;0.93;100.00;100882.78;4844775;29;20254;-83
2021/12/11 05:12:56;;;;;;;46.85;26.20;;;;;;;0.91;100.00;100888.06;4829822;29;20570;-82
2021/12/11 05:14:57;;;;;;;51.80;28.20;;;;;;;0.85;100.00;100881.88;4845365;29;20626;-83
2021/12/11 05:17:23;;;;;;;51.25;26.13;;;;;;;0.80;100.00;100882.75;4846161;29;20206;-84
2021/12/11 05:19:49;;;;;;;49.17;27.23;;;;;;;0.80;100.00;100882.75;4845344;29;20175;-84
2021/12/11 05:22:17;;;;;;;48.13;26.65;;;;;;;0.78;100.00;100887.13;4844324;29;20669;-84
2021/12/11 05:24:46;;;;;;;51.45;26.58;;;;;;;0.78;100.00;100881.84;4846100;29;20167;-84
2021/12/11 05:27:12;;;;;;;47.90;26.90;;;;;;;0.76;100.00;100891.53;4845723;29;20191;-84
2021/12/11 05:29:39;;;;;;;52.20;26.38;;;;;;;0.71;100.00;100895.03;4829020;29;20202;-82
2021/12/11 05:32:07;;;;;;;51.60;25.38;;;;;;;0.67;100.00;100893.25;4845481;29;20190;-82
2021/12/11 05:34:32;;;;;;;55.10;26.85;;;;;;;0.62;100.00;100898.53;4846258;29;20855;-82
2021/12/11 05:36:58;;;;;;;51.28;27.52;;;;;;;0.55;100.00;100896.75;4843593;29;20191;-82
2021/12/11 05:39:23;;;;;;;48.25;26.58;;;;;;;0.55;100.00;100897.63;4828741;29;20626;-83
2021/12/11 05:41:50;;;;;;;57.55;28.50;;;;;;;0.51;100.00;100901.13;4829453;29;20211;-82
2021/12/11 05:44:18;;;;;;;51.75;26.13;;;;;;;0.51;100.00;100898.47;4845360;29;20263;-82
2021/12/11 05:46:45;;;;;;;51.70;26.70;;;;;;;0.40;100.00;100900.19;4844481;29;20181;-82
2021/12/11 05:49:12;;;;;;;50.47;27.35;;;;;;;0.32;100.00;100897.50;4828864;29;20211;-82
2021/12/11 05:51:40;;;;;;;52.65;26.35;;;;;;;0.37;100.00;100913.34;4843934;29;20590;-83
2021/12/11 05:54:14;;;;;;;54.65;26.50;;;;;;;0.44;100.00;100916.88;4843955;29;20171;-82
2021/12/11 05:56:41;;;;;;;51.85;26.05;;;;;;;0.30;100.00;100911.56;4843537;29;20666;-83
2021/12/11 05:59:09;;;;;;;51.63;27.30;;;;;;;0.22;100.00;100915.91;4840775;29;20175;-83
2021/12/11 06:01:43;;;;;;;45.55;25.15;;;;;;;0.02;100.00;100906.13;4825505;29;20207;-83
2021/12/11 06:04:19;;;;;;;49.80;25.15;;;;;;;0.08;100.00;100916.69;4827378;29;20227;-82
2021/12/11 06:06:47;;;;;;;47.58;23.58;;;;;;;0.04;100.00;100919.31;4812121;29;20569;-83
2021/12/11 06:09:18;;;;;;;46.63;24.60;;;;;;;-0.02;100.00;100918.41;4825938;29;20571;-83
2021/12/11 06:11:47;;;;;;;42.72;24.08;;;;;;;-0.14;100.00;100922.72;4824404;29;20215;-82
2021/12/11 06:14:12;;;;;;;41.67;24.42;;;;;;;-0.19;100.00;100916.53;4824854;29;20171;-82
2021/12/11 06:16:38;;;;;;;42.13;22.38;;;;;;;-0.19;100.00;100922.69;4823645;29;20178;-83
2021/12/11 06:19:05;;;;;;;50.53;24.23;;;;;;;-0.31;100.00;100927.84;4823796;29;20224;-82
2021/12/11 06:21:34;;;;;;;45.83;23.90;;;;;;;-0.37;100.00;100931.31;4825197;29;20198;-83
2021/12/11 06:24:00;;;;;;;48.42;24.98;;;;;;;-0.19;100.00;100941.13;4824168;29;20478;-83
2021/12/11 06:26:26;;;;;;;52.75;25.15;;;;;;;-0.20;100.00;100939.34;4823540;29;20220;-83
2021/12/11 06:28:51;;;;;;;45.63;23.73;;;;;;;-0.28;100.00;100946.31;4824867;29;20365;-83
2021/12/11 06:31:19;;;;;;;45.25;24.60;;;;;;;-0.19;100.00;100961.31;4826863;29;20218;-83
2021/12/11 06:33:48;;;;;;;46.50;24.77;;;;;;;-0.15;100.00;100950.81;4827389;29;20186;-83
2021/12/11 06:36:14;;;;;;;52.35;25.30;;;;;;;-0.05;100.00;100962.28;4826368;29;20228;-83
2021/12/11 06:38:42;;;;;;;50.75;26.23;;;;;;;-0.01;100.00;100971.97;4809838;29;20187;-82
2021/12/11 06:41:11;;;;;;;43.03;23.13;;;;;;;-0.09;100.00;100968.38;4825238;29;20570;-83
2021/12/11 06:43:37;;;;;;;49.80;25.35;;;;;;;-0.10;100.00;100967.50;4825645;29;20266;-82
2021/12/11 06:46:03;;;;;;;45.75;23.35;;;;;;;-0.22;100.00;100977.94;4826656;29;20244;-83
2021/12/11 06:48:28;;;;;;;47.45;24.35;;;;;;;-0.22;100.00;100972.66;4827741;29;20200;-83
2021/12/11 06:50:55;;;;;;;46.80;23.65;;;;;;;-0.23;100.00;100990.22;4828995;29;20252;-83
2021/12/11 06:53:26;;;;;;;50.53;23.42;;;;;;;-0.33;100.00;100993.66;4829232;29;20182;-83
2021/12/11 06:55:52;;;;;;;45.47;25.33;;;;;;;-0.53;100.00;100985.56;4828355;29;20274;-83
2021/12/11 06:58:18;;;;;;;45.83;22.15;;;;;;;-0.42;100.00;100999.72;4828030;29;20195;-83
2021/12/11 07:00:43;;;;;;;47.88;23.65;;;;;;;-0.49;100.00;101000.53;4843961;29;20194;-83
2021/12/11 07:03:09;;;;;;;46.08;23.25;;;;;;;-0.48;100.00;101001.41;4846993;29;20175;-84
2021/12/11 07:05:36;;;;;;;47.80;23.88;;;;;;;-0.44;100.00;101019.88;4844255;29;20187;-82
2021/12/11 07:08:05;;;;;;;49.60;23.85;;;;;;;-0.39;100.00;101019.03;4843283;29;20242;-82
2021/12/11 07:10:31;;;;;;;48.42;25.17;;;;;;;-0.46;100.00;101012.81;4844954;29;21970;-82
2021/12/11 07:12:57;;;;;;;46.10;24.35;;;;;;;-0.37;100.00;101022.56;4837477;29;20198;-83
2021/12/11 07:15:22;;;;;;;51.67;24.60;;;;;;;-0.44;100.00;101024.25;4854717;29;20186;-84
2021/12/11 07:17:48;;;;;;;46.55;25.63;;;;;;;-0.48;100.00;101018.09;4861960;29;20170;-82
2021/12/11 07:20:15;;;;;;;46.78;24.25;;;;;;;-0.59;100.00;101032.91;4862405;29;20262;-83
2021/12/11 07:22:41;;;;;;;43.90;23.25;;;;;;;-0.56;100.00;101039.94;4861949;29;20720;-82
2021/12/11 07:25:17;;;;;;;46.40;23.48;;;;;;;-0.46;100.00;101042.69;4846584;29;20285;-83
2021/12/11 07:27:45;;;;;;;44.25;24.35;;;;;;;-0.39;100.00;101055.88;4842347;29;20198;-83
2021/12/11 07:30:11;;;;;;;51.22;25.13;;;;;;;-0.55;100.00;101047.81;4842594;29;20699;-83
2021/12/11 07:32:37;;;;;;;48.83;24.95;;;;;;;-0.64;100.00;101050.34;4844158;29;20207;-82
2021/12/11 07:35:04;;;;;;;46.83;23.73;;;;;;;-0.60;100.00;101070.59;4828788;29;20225;-82
2021/12/11 07:37:30;;;;;;;53.65;24.58;;;;;;;-0.51;100.00;101060.16;4843676;29;20183;-82
2021/12/11 07:39:55;;;;;;;56.85;26.42;;;;;;;-0.61;100.00;101068.84;4827446;29;20777;-81
2021/12/11 07:42:21;;;;;;;55.77;31.50;;;;;;;-0.48;100.00;101065.47;4842850;29;20875;-83
2021/12/11 07:44:46;;;;;;;53.50;28.42;;;;;;;-0.50;100.00;101063.69;4841970;29;20690;-84
2021/12/11 07:47:12;;;;;;;52.75;27.13;;;;;;;-0.39;100.00;101063.78;4842547;29;20196;-84
2021/12/11 07:49:38;;;;;;;53.90;26.33;;;;;;;-0.27;100.00;101077.94;4844068;29;20710;-84
2021/12/11 07:52:04;;;;;;;53.70;27.75;;;;;;;-0.21;100.00;101080.66;4844252;29;20345;-82
2021/12/11 07:54:29;;;;;;;50.20;26.05;;;;;;;-0.13;100.00;101087.72;4875134;29;20170;-82
2021/12/11 07:56:55;;;;;;;56.63;27.40;;;;;;;-0.11;100.00;101084.28;4858332;29;20289;-82
2021/12/11 07:59:21;;;;;;;65.20;28.05;;;;;;;0.04;100.00;101080.00;4833788;29;20175;-82
2021/12/11 08:01:49;;;;;;;57.97;26.40;;;;;;;0.10;100.00;101080.94;4823067;29;20244;-82
2021/12/11 08:04:15;;;;;;;72.63;29.17;;;;;;;0.17;100.00;101088.00;4824671;29;20183;-81
2021/12/11 08:06:41;;;;;;;62.63;28.60;;;;;;;0.26;100.00;101097.75;4826350;29;20175;-82
2021/12/11 08:09:11;;;;;;;52.25;26.88;;;;;;;0.28;100.00;101101.28;4825245;29;20640;-82
2021/12/11 08:11:37;;;;;;;57.70;26.85;;;;;;;0.28;100.00;101103.91;4827063;29;20206;-83
2021/12/11 08:14:04;;;;;;;58.72;26.80;;;;;;;0.35;100.00;101107.47;4843165;29;20258;-80
2021/12/11 08:16:35;;;;;;;54.63;28.50;;;;;;;0.36;100.00;101118.03;4836694;29;20286;-80
2021/12/11 08:19:04;;;;;;;57.65;30.17;;;;;;;0.43;100.00;101120.72;4824869;29;20179;-81
2021/12/11 08:21:29;;;;;;;54.25;27.13;;;;;;;0.47;100.00;101125.16;4839190;29;20275;-81
2021/12/11 08:23:56;;;;;;;63.00;29.30;;;;;;;0.51;100.00;101132.22;4843597;29;20183;-81
2021/12/11 08:26:25;;;;;;;59.78;30.17;;;;;;;0.54;100.00;101122.56;4843954;29;20187;-81
2021/12/11 08:28:52;;;;;;;63.08;30.55;;;;;;;0.63;100.00;101137.56;4838289;29;20211;-80
2021/12/11 08:31:20;;;;;;;53.88;27.52;;;;;;;0.73;100.00;101133.25;4825935;29;20203;-81
2021/12/11 08:33:46;;;;;;;55.50;27.52;;;;;;;0.78;100.00;101127.13;4826499;29;20179;-80
2021/12/11 08:36:12;;;;;;;54.60;27.63;;;;;;;0.78;100.00;101126.25;4826251;29;20200;-81
2021/12/11 08:38:38;;;;;;;53.42;25.95;;;;;;;0.88;100.00;101120.16;4827536;29;20236;-80
2021/12/11 08:41:07;;;;;;;47.67;24.67;;;;;;;0.99;100.00;101128.16;4825997;29;20280;-81
2021/12/11 08:43:33;;;;;;;47.38;24.70;;;;;;;1.03;100.00;101135.22;4825823;29;20226;-81
2021/12/11 08:46:11;;;;;;;44.17;23.30;;;;;;;1.05;100.00;101130.84;4831063;29;20227;-81
2021/12/11 08:48:40;;;;;;;44.28;23.35;;;;;;;1.13;100.00;101136.13;4842980;29;20207;-81
2021/12/11 08:51:12;;;;;;;47.10;22.58;;;;;;;1.20;100.00;101144.09;4827944;29;20198;-82
2021/12/11 08:53:37;;;;;;;45.38;23.25;;;;;;;1.23;100.00;101138.84;4842816;29;20198;-82
2021/12/11 08:56:07;;;;;;;41.17;22.27;;;;;;;1.22;100.00;101147.63;4827621;29;20198;-82
2021/12/11 08:58:33;;;;;;;49.28;23.13;;;;;;;1.29;100.00;101143.28;4842372;29;20171;-82
2021/12/11 09:01:05;;;;;;;42.03;22.98;;;;;;;1.28;100.00;101149.41;4842363;29;20217;-82
2021/12/11 09:03:51;;;;;;;40.45;21.27;;;;;;;1.34;100.00;101156.50;4842652;29;20258;-82
2021/12/11 09:06:34;;;;;;;44.33;21.85;;;;;;;1.42;100.00;101146.81;4842528;29;20187;-82
2021/12/11 09:09:27;;;;;;;44.20;21.80;;;;;;;1.40;100.00;101149.47;4858579;29;20203;-82
2021/12/11 09:12:07;;;;;;;39.90;21.60;;;;;;;1.41;100.00;101145.94;4837573;29;20693;-83
2021/12/11 09:14:35;;;;;;;43.28;20.08;;;;;;;1.46;100.00;101151.25;4846689;29;20246;-83
2021/12/11 09:17:04;;;;;;;36.22;21.10;;;;;;;1.49;100.00;101159.19;4861891;29;20250;-83
2021/12/11 09:19:36;;;;;;;35.90;20.80;;;;;;;1.55;100.00;101155.69;4845020;29;20199;-83
2021/12/11 09:22:20;;;;;;;37.38;21.23;;;;;;;1.54;100.00;101165.38;4827815;29;20249;-83
2021/12/11 09:24:58;;;;;;;38.53;19.35;;;;;;;1.68;100.00;101178.63;4826426;29;20262;-84
2021/12/11 09:27:30;;;;;;;32.60;18.75;;;;;;;1.62;100.00;101168.94;4825609;29;20241;-84
2021/12/11 09:30:21;;;;;;;34.40;19.30;;;;;;;1.65;100.00;101175.97;4826758;29;20199;-84
2021/12/11 09:32:55;;;;;;;33.65;18.80;;;;;;;1.64;100.00;101183.03;4810886;29;20213;-85
2021/12/11 09:35:32;;;;;;;36.75;20.10;;;;;;;1.66;100.00;101180.38;4811044;29;20733;-83
2021/12/11 09:38:05;;;;;;;35.50;18.15;;;;;;;1.68;100.00;101178.63;4825592;29;20207;-84
2021/12/11 09:40:36;;;;;;;31.38;18.30;;;;;;;1.76;100.00;101186.59;4825814;29;20176;-84
2021/12/11 09:43:02;;;;;;;30.20;16.55;;;;;;;1.78;100.00;101187.47;4827422;29;20555;-84
2021/12/11 09:45:34;;;;;;;24.33;15.95;;;;;;;1.83;100.00;101194.53;4825664;29;20179;-84
2021/12/11 09:48:05;;;;;;;27.15;16.42;;;;;;;1.89;100.00;101180.47;4824478;29;20268;-84
2021/12/11 09:50:50;;;;;;;24.75;14.80;;;;;;;1.87;100.00;101184.84;4825082;29;20199;-84
2021/12/11 09:53:19;;;;;;;27.50;15.68;;;;;;;1.91;100.00;101185.75;4829665;29;20208;-84
2021/12/11 09:55:44;;;;;;;25.17;14.07;;;;;;;1.91;100.00;101181.34;4847243;29;20201;-84
2021/12/11 09:58:14;;;;;;;23.63;14.30;;;;;;;1.95;100.00;101193.69;4863377;29;20193;-83
2021/12/11 10:00:50;;;;;;;21.85;14.02;;;;;;;2.00;100.00;101191.94;4859246;29;20249;-85
2021/12/11 10:03:19;;;;;;;22.35;13.57;;;;;;;2.05;100.00;101197.22;4861189;29;20185;-84
2021/12/11 10:05:56;;;;;;;19.25;12.93;;;;;;;2.23;100.00;101199.03;4861168;29;20185;-83
2021/12/11 10:08:36;;;;;;;21.20;13.18;;;;;;;2.29;100.00;101209.63;4860101;29;20329;-83
2021/12/11 10:11:13;;;;;;;18.83;12.57;;;;;;;2.44;100.00;101214.06;4845572;29;20209;-82
2021/12/11 10:14:04;;;;;;;19.45;12.95;;;;;;;2.53;100.00;101215.84;4861222;29;20225;-81
2021/12/11 10:16:35;;;;;;;19.10;11.73;;;;;;;2.52;100.00;101212.31;4862025;29;20182;-81
2021/12/11 10:19:02;;;;;;;18.98;12.45;;;;;;;2.41;100.00;101206.13;4862523;29;20660;-82
2021/12/11 10:21:33;;;;;;;18.17;12.15;;;;;;;2.41;100.00;101211.44;4828346;29;20581;-84
2021/12/11 10:24:02;;;;;;;18.55;12.13;;;;;;;2.36;100.00;101208.78;4814457;29;20191;-84
2021/12/11 10:26:28;;;;;;;17.33;11.85;;;;;;;2.38;100.00;101209.63;4827689;29;20319;-84
2021/12/11 10:28:57;;;;;;;19.45;12.13;;;;;;;2.36;100.00;101213.16;4826503;29;20737;-84
2021/12/11 10:31:35;;;;;;;19.05;12.15;;;;;;;2.35;99.88;101212.28;4827412;29;20201;-83
2021/12/11 10:34:05;;;;;;;17.95;11.63;;;;;;;2.31;99.91;101207.00;4826310;29;20203;-83
2021/12/11 10:36:35;;;;;;;16.77;11.45;;;;;;;2.32;99.96;101207.00;4826912;29;20198;-83
2021/12/11 10:39:04;;;;;;;17.70;11.70;;;;;;;2.34;99.89;101214.91;4825423;29;20198;-81
2021/12/11 10:41:31;;;;;;;18.90;11.70;;;;;;;2.39;99.92;101218.47;4825929;29;20203;-82
2021/12/11 10:44:04;;;;;;;18.30;11.60;;;;;;;2.42;100.00;101211.41;4825759;29;20265;-81
2021/12/11 10:46:37;;;;;;;15.77;10.45;;;;;;;2.50;100.00;101214.06;4825997;29;20176;-82
2021/12/11 10:49:06;;;;;;;17.63;11.00;;;;;;;2.58;100.00;101224.66;4827005;29;20290;-82
2021/12/11 10:51:39;;;;;;;13.00;10.20;;;;;;;2.72;100.00;101224.69;4825485;29;20187;-81
2021/12/11 10:54:06;;;;;;;17.73;9.38;;;;;;;2.85;100.00;101227.31;4827555;29;20273;-82
2021/12/11 10:56:31;;;;;;;13.57;9.32;;;;;;;2.82;99.78;101229.97;4809278;29;20226;-83
2021/12/11 10:59:05;;;;;;;12.30;8.50;;;;;;;2.78;99.93;101228.19;4823926;29;20271;-82
2021/12/11 11:01:35;;;;;;;15.90;8.13;;;;;;;2.82;100.00;101247.59;4824001;29;20686;-82
2021/12/11 11:04:07;;;;;;;11.70;8.13;;;;;;;2.78;100.00;101245.84;4825793;29;20191;-83
2021/12/11 11:06:34;;;;;;;10.20;7.93;;;;;;;2.73;100.00;101243.16;4825622;29;20191;-82
2021/12/11 11:09:00;;;;;;;12.35;7.90;;;;;;;2.72;100.00;101244.06;4823765;29;20305;-82
2021/12/11 11:11:30;;;;;;;11.30;6.90;;;;;;;2.82;100.00;101252.88;4825753;29;20194;-83
2021/12/11 11:13:55;;;;;;;12.15;8.70;;;;;;;2.78;100.00;101248.50;4823423;29;20191;-82
2021/12/11 11:16:23;;;;;;;12.88;8.95;;;;;;;2.79;100.00;101253.75;4823671;29;20509;-82
2021/12/11 11:18:50;;;;;;;15.68;9.95;;;;;;;2.82;100.00;101260.81;4824962;29;20661;-83
2021/12/11 11:21:20;;;;;;;18.30;11.20;;;;;;;2.88;100.00;101261.69;4837829;29;20206;-83
2021/12/11 11:23:47;;;;;;;20.92;11.65;;;;;;;2.86;100.00;101244.97;4842144;29;20632;-82
2021/12/11 11:26:18;;;;;;;21.35;13.25;;;;;;;2.86;100.00;101503.41;4842552;29;20182;-82
2021/12/11 11:28:44;;;;;;;18.52;13.65;;;;;;;2.88;100.00;101043.81;4841637;29;20653;-82
2021/12/11 11:31:23;;;;;;;21.65;14.10;;;;;;;2.86;100.00;101043.84;4842788;29;20293;-82
2021/12/11 11:33:49;;;;;;;20.70;15.27;;;;;;;2.81;100.00;101050.91;4842939;29;20173;-83
2021/12/11 11:36:23;;;;;;;24.48;15.60;;;;;;;2.80;100.00;101067.69;4826791;29;20179;-80